Time;durP1;ratioP1;P1;durP2;ratioP2;P2;SDS_P1;SDS_P2;PMS_P1;PMS_P2;Temp;Humidity;BMP_temperature;BMP_pressure;BME280_temperature;BME280_humidity;BME280_pressure;Samples;Min_cycle;Max_cycle;Signal;HPM_P1;HPM_P2
2022/10/12 00:02:06;;;;;;;;;;;;;;;21.63;65.34;100433.41;7311999;19;130285;-38
2022/10/12 00:04:32;;;;;;;;;;;;;;;21.63;64.97;100434.25;7311036;19;130463;-37
2022/10/12 00:06:57;;;;;;;;;;;;;;;21.59;65.16;100437.19;7312360;19;129575;-37
2022/10/12 00:09:22;;;;;;;;;;;;;;;21.58;65.63;100444.25;7316290;19;129159;-37
2022/10/12 00:11:47;;;;;;;;;;;;;;;21.62;65.78;100445.66;7314904;19;130805;-37
2022/10/12 00:14:13;;;;;;;;;;;;;;;21.61;65.34;100440.53;7310656;19;129586;-38
2022/10/12 00:16:38;;;;;;;;;;;;;;;21.59;65.76;100443.28;7313906;19;130020;-38
2022/10/12 00:19:03;;;;;;;;;;;;;;;21.49;65.89;100424.00;7315629;19;129320;-38
2022/10/12 00:21:29;;;;;;;;;;;;;;;21.60;65.17;100444.94;7314746;19;130822;-36
2022/10/12 00:23:58;;;;;;;;;;;;;;;21.61;65.25;100448.38;7310290;19;130820;-37
2022/10/12 00:26:24;;;;;;;;;;;;;;;21.46;65.14;100424.25;7313002;19;129243;-38
2022/10/12 00:28:53;;;;;;;;;;;;;;;21.60;65.93;100434.47;7314480;19;129370;-38
2022/10/12 00:31:19;;;;;;;;;;;;;;;21.60;65.77;100436.28;7314363;19;130609;-35
2022/10/12 00:33:45;;;;;;;;;;;;;;;21.58;65.21;100439.00;7311994;19;129479;-38
2022/10/12 00:36:15;;;;;;;;;;;;;;;21.59;65.48;100438.03;7313241;19;129351;-37
2022/10/12 00:38:41;;;;;;;;;;;;;;;21.59;65.18;100438.03;7314827;19;129145;-37
2022/10/12 00:41:06;;;;;;;;;;;;;;;21.62;65.68;100435.19;7315188;19;129371;-37
2022/10/12 00:43:34;;;;;;;;;;;;;;;21.61;65.21;100438.75;7310328;19;131051;-37
2022/10/12 00:46:01;;;;;;;;;;;;;;;21.56;64.97;100438.28;7312598;19;130814;-37
2022/10/12 00:48:27;;;;;;;;;;;;;;;21.55;65.78;100447.06;7313830;19;130663;-37
2022/10/12 00:50:53;;;;;;;;;;;;;;;21.63;65.57;100443.88;7314333;19;129448;-38
2022/10/12 00:53:20;;;;;;;;;;;;;;;21.62;65.12;100440.41;7312865;19;129712;-36
2022/10/12 00:55:53;;;;;;;;;;;;;;;21.62;65.71;100444.81;7310060;19;131497;-37
2022/10/12 00:58:19;;;;;;;;;;;;;;;21.66;64.95;100443.63;7313525;19;129396;-37
2022/10/12 01:00:45;;;;;;;;;;;;;;;21.60;65.43;100431.84;7314462;19;130555;-37
2022/10/12 01:03:12;;;;;;;;;;;;;;;21.62;65.29;100435.19;7313560;19;130401;-37
2022/10/12 01:05:41;;;;;;;;;;;;;;;21.63;65.73;100433.41;7309924;19;129612;-37
2022/10/12 01:08:06;;;;;;;;;;;;;;;21.53;64.89;100419.38;7314508;19;129874;-38
2022/10/12 01:10:31;;;;;;;;;;;;;;;21.64;64.60;100421.97;7313445;19;129899;-37
2022/10/12 01:12:57;;;;;;;;;;;;;;;21.51;65.04;100413.41;7312855;19;129525;-37
2022/10/12 01:15:26;;;;;;;;;;;;;;;21.64;64.83;100420.19;7311095;19;129674;-37
2022/10/12 01:18:09;;;;;;;;;;;;;;;21.54;64.76;100408.78;7313546;19;129360;-37
2022/10/12 01:20:53;;;;;;;;;;;;;;;21.63;65.25;100426.41;7312556;19;130290;-37
2022/10/12 01:23:30;;;;;;;;;;;;;;;21.53;64.89;100417.59;7311265;19;129456;-38
2022/10/12 01:25:56;;;;;;;;;;;;;;;21.64;65.61;100428.06;7311167;19;129077;-37
2022/10/12 01:28:40;;;;;;;;;;;;;;;21.58;65.21;100425.94;7313859;19;129097;-39
2022/10/12 01:31:19;;;;;;;;;;;;;;;21.59;65.47;100424.13;7314412;19;130546;-37
2022/10/12 01:33:47;;;;;;;;;;;;;;;21.62;65.17;100424.72;7311564;19;129675;-38
2022/10/12 01:36:25;;;;;;;;;;;;;;;21.58;65.15;100425.94;7309129;19;128959;-37
2022/10/12 01:38:54;;;;;;;;;;;;;;;21.57;65.57;100432.09;7312308;19;129002;-38
2022/10/12 01:41:30;;;;;;;;;;;;;;;21.59;65.57;100427.56;7312701;19;129545;-36
2022/10/12 01:43:56;;;;;;;;;;;;;;;21.60;65.17;100429.22;7309250;19;131348;-38
2022/10/12 01:46:24;;;;;;;;;;;;;;;21.58;64.85;100420.69;7310298;19;129146;-37
2022/10/12 01:48:51;;;;;;;;;;;;;;;21.61;65.58;100430.06;7312452;19;128971;-38
2022/10/12 01:51:19;;;;;;;;;;;;;;;21.52;65.25;100410.69;7311684;19;131376;-36
2022/10/12 01:54:07;;;;;;;;;;;;;;;21.51;65.67;100403.81;7311287;19;130373;-36
2022/10/12 01:56:41;;;;;;;;;;;;;;;21.60;65.27;100420.56;7306768;19;129434;-37
2022/10/12 01:59:18;;;;;;;;;;;;;;;21.57;65.53;100416.41;7313440;19;130228;-37
2022/10/12 02:01:51;;;;;;;;;;;;;;;21.59;65.37;100416.28;7310959;19;130914;-37
2022/10/12 02:04:22;;;;;;;;;;;;;;;21.49;64.96;100395.22;7308535;19;131222;-37
2022/10/12 02:07:14;;;;;;;;;;;;;;;21.60;65.27;100413.53;7306463;19;129405;-37
2022/10/12 02:09:40;;;;;;;;;;;;;;;21.59;65.26;100411.88;7311507;19;129010;-37
2022/10/12 02:12:08;;;;;;;;;;;;;;;21.61;65.08;100409.97;7310719;19;129935;-37
2022/10/12 02:14:37;;;;;;;;;;;;;;;21.60;64.90;100402.25;7310583;19;130421;-38
2022/10/12 02:17:04;;;;;;;;;;;;;;;21.58;65.21;100410.22;7311617;19;129804;-38
2022/10/12 02:19:31;;;;;;;;;;;;;;;21.59;65.49;100417.13;7311464;19;130258;-37
2022/10/12 02:21:59;;;;;;;;;;;;;;;21.61;65.65;100411.75;7311195;19;130961;-37
2022/10/12 02:24:25;;;;;;;;;;;;;;;21.60;65.58;100408.28;7307420;19;130449;-37
2022/10/12 02:26:52;;;;;;;;;;;;;;;21.61;65.66;100417.84;7311481;19;131193;-37
2022/10/12 02:29:24;;;;;;;;;;;;;;;21.60;64.80;100408.28;7319318;19;129615;-37
2022/10/12 02:32:01;;;;;;;;;;;;;;;21.59;65.31;100401.41;7316654;19;130119;-37
2022/10/12 02:34:29;;;;;;;;;;;;;;;21.62;64.98;100416.03;7314570;19;129683;-37
2022/10/12 02:37:04;;;;;;;;;;;;;;;21.61;65.59;100420.44;7315687;19;128983;-37
2022/10/12 02:39:32;;;;;;;;;;;;;;;21.61;64.99;100417.84;7318850;19;128676;-37
2022/10/12 02:42:00;;;;;;;;;;;;;;;21.58;65.82;100410.22;7317468;19;130264;-37
2022/10/12 02:44:27;;;;;;;;;;;;;;;21.51;64.90;100397.72;7314584;19;130083;-38
2022/10/12 02:46:53;;;;;;;;;;;;;;;21.62;65.11;100416.88;7314634;19;130014;-38
2022/10/12 02:49:21;;;;;;;;;;;;;;;21.60;64.92;100416.16;7318071;19;129470;-38
2022/10/12 02:51:47;;;;;;;;;;;;;;;21.61;65.06;100409.97;7316255;19;129959;-38
2022/10/12 02:54:12;;;;;;;;;;;;;;;21.64;65.15;100412.34;7312761;19;130443;-38
2022/10/12 02:56:44;;;;;;;;;;;;;;;21.62;65.68;100410.78;7314951;19;128994;-37
2022/10/12 02:59:10;;;;;;;;;;;;;;;21.52;65.18;100387.13;7318474;19;128965;-38
2022/10/12 03:01:35;;;;;;;;;;;;;;;21.58;65.37;100405.00;7316671;19;129389;-38
2022/10/12 03:04:01;;;;;;;;;;;;;;;21.62;65.56;100411.63;7313732;19;129125;-38
2022/10/12 03:06:26;;;;;;;;;;;;;;;21.58;65.55;100410.22;7313603;19;128955;-38
2022/10/12 03:08:52;;;;;;;;;;;;;;;21.58;64.90;100415.47;7317869;19;129367;-37
2022/10/12 03:11:17;;;;;;;;;;;;;;;21.56;64.90;100408.66;7318051;19;130710;-37
2022/10/12 03:13:42;;;;;;;;;;;;;;;21.58;65.16;100415.47;7313379;19;130911;-37
2022/10/12 03:16:08;;;;;;;;;;;;;;;21.60;65.24;100408.28;7313474;19;129634;-37
2022/10/12 03:18:34;;;;;;;;;;;;;;;21.63;65.20;100404.63;7316706;19;129410;-37
2022/10/12 03:20:59;;;;;;;;;;;;;;;21.59;65.28;100396.19;7316935;19;129041;-37
2022/10/12 03:23:25;;;;;;;;;;;;;;;21.62;65.21;100411.63;7312435;19;131076;-38
2022/10/12 03:25:50;;;;;;;;;;;;;;;21.60;64.76;100408.28;7314131;19;129981;-37
2022/10/12 03:28:16;;;;;;;;;;;;;;;21.57;65.22;100402.47;7315445;19;129257;-37
2022/10/12 03:30:41;;;;;;;;;;;;;;;21.58;65.59;100405.00;7317121;19;130793;-38
2022/10/12 03:33:06;;;;;;;;;;;;;;;21.59;65.01;100406.66;7313490;19;129868;-37
2022/10/12 03:35:32;;;;;;;;;;;;;;;21.58;65.44;100402.38;7316277;19;129219;-37
2022/10/12 03:37:57;;;;;;;;;;;;;;;21.62;65.09;100400.31;7316523;19;129659;-37
2022/10/12 03:40:22;;;;;;;;;;;;;;;21.59;65.45;100403.19;7317956;19;131469;-37
2022/10/12 03:42:47;;;;;;;;;;;;;;;21.58;65.32;100399.75;7315279;19;130299;-37
2022/10/12 03:45:12;;;;;;;;;;;;;;;21.47;64.89;100381.44;7312463;19;130988;-38
2022/10/12 03:47:38;;;;;;;;;;;;;;;21.60;65.08;100397.84;7317179;19;129098;-37
2022/10/12 03:50:03;;;;;;;;;;;;;;;21.58;65.60;100394.53;7315538;19;131024;-37
2022/10/12 03:52:29;;;;;;;;;;;;;;;21.59;64.93;100395.34;7313627;19;132398;-38
2022/10/12 03:54:54;;;;;;;;;;;;;;;21.49;64.92;100384.75;7313963;19;129071;-38
2022/10/12 03:57:19;;;;;;;;;;;;;;;21.61;65.27;100403.91;7314087;19;129387;-38
2022/10/12 03:59:44;;;;;;;;;;;;;;;21.60;64.97;100397.84;7314956;19;129284;-37
2022/10/12 04:02:09;;;;;;;;;;;;;;;21.57;65.58;100392.84;7312032;19;130543;-38
2022/10/12 04:04:35;;;;;;;;;;;;;;;21.61;65.68;100394.28;7313367;19;129505;-37
2022/10/12 04:07:00;;;;;;;;;;;;;;;21.49;65.19;100379.53;7313034;19;129135;-37
2022/10/12 04:09:25;;;;;;;;;;;;;;;21.59;64.96;100396.19;7313385;19;130185;-37
2022/10/12 04:11:50;;;;;;;;;;;;;;;21.63;65.55;100402.84;7313306;19;130394;-37
2022/10/12 04:14:16;;;;;;;;;;;;;;;21.60;64.91;100394.41;7314215;19;129228;-38
2022/10/12 04:16:41;;;;;;;;;;;;;;;21.57;64.91;100398.06;7313299;19;129132;-37
2022/10/12 04:19:09;;;;;;;;;;;;;;;21.57;64.95;100398.06;7314516;19;130852;-37
2022/10/12 04:21:34;;;;;;;;;;;;;;;21.54;65.31;100403.56;7309467;19;129861;-37
2022/10/12 04:23:59;;;;;;;;;;;;;;;21.61;65.51;100393.44;7307206;19;129294;-37
2022/10/12 04:26:24;;;;;;;;;;;;;;;21.60;65.58;100391.78;7310240;19;129369;-36
2022/10/12 04:28:50;;;;;;;;;;;;;;;21.48;65.45;100380.50;7313419;19;130514;-38
2022/10/12 04:31:15;;;;;;;;;;;;;;;21.60;65.06;100392.59;7310963;19;130513;-37
2022/10/12 04:33:40;;;;;;;;;;;;;;;21.60;65.52;100392.59;7306971;19;132204;-38
2022/10/12 04:36:06;;;;;;;;;;;;;;;21.59;64.74;100401.41;7310022;19;129634;-37
2022/10/12 04:38:31;;;;;;;;;;;;;;;21.62;65.26;100389.84;7310650;19;130111;-37
2022/10/12 04:40:57;;;;;;;;;;;;;;;21.58;64.78;100394.53;7313384;19;130647;-37
2022/10/12 04:43:22;;;;;;;;;;;;;;;21.57;65.53;100395.47;7313004;19;129383;-36
2022/10/12 04:45:57;;;;;;;;;;;;;;;21.49;65.64;100374.31;7311780;19;129633;-37
2022/10/12 04:48:23;;;;;;;;;;;;;;;21.58;65.39;100394.53;7312305;19;130178;-38
2022/10/12 04:50:48;;;;;;;;;;;;;;;21.59;65.46;100390.94;7310697;19;130399;-38
2022/10/12 04:53:13;;;;;;;;;;;;;;;21.56;65.14;100396.44;7314028;19;129439;-37
2022/10/12 04:55:38;;;;;;;;;;;;;;;21.56;65.39;100391.19;7312393;19;129157;-38
2022/10/12 04:58:04;;;;;;;;;;;;;;;21.56;65.03;100391.19;7312915;19;129721;-37
2022/10/12 05:00:29;;;;;;;;;;;;;;;21.59;65.02;100390.94;7311705;19;130309;-38
2022/10/12 05:02:54;;;;;;;;;;;;;;;21.57;65.40;100387.59;7309600;19;128899;-38
2022/10/12 05:05:19;;;;;;;;;;;;;;;21.53;65.08;100383.59;7306478;19;129099;-37
2022/10/12 05:07:44;;;;;;;;;;;;;;;21.58;65.65;100391.06;7308852;19;130083;-38
2022/10/12 05:10:10;;;;;;;;;;;;;;;21.58;65.01;100398.91;7312721;19;130311;-37
2022/10/12 05:12:35;;;;;;;;;;;;;;;21.54;65.41;100394.88;7307960;19;129319;-37
2022/10/12 05:15:00;;;;;;;;;;;;;;;21.57;65.30;100398.06;7310479;19;129335;-37
2022/10/12 05:17:25;;;;;;;;;;;;;;;21.58;65.29;100398.91;7312263;19;130316;-38
2022/10/12 05:19:51;;;;;;;;;;;;;;;21.60;65.10;100392.59;7311973;19;130492;-36
2022/10/12 05:22:16;;;;;;;;;;;;;;;21.59;64.79;100401.41;7312074;19;130231;-38
2022/10/12 05:24:41;;;;;;;;;;;;;;;21.61;65.13;100401.28;7311591;19;129103;-37
2022/10/12 05:27:06;;;;;;;;;;;;;;;21.52;64.91;100381.91;7308938;19;129210;-37
2022/10/12 05:29:32;;;;;;;;;;;;;;;21.55;65.03;100393.94;7311036;19;129224;-38
2022/10/12 05:31:57;;;;;;;;;;;;;;;21.58;64.95;100394.53;7310263;19;129848;-38
2022/10/12 05:34:22;;;;;;;;;;;;;;;21.59;65.02;100397.94;7310586;19;129371;-37
2022/10/12 05:36:48;;;;;;;;;;;;;;;21.58;65.62;100389.28;7309322;19;129566;-37
2022/10/12 05:39:13;;;;;;;;;;;;;;;21.58;64.94;100394.53;7309621;19;131416;-37
2022/10/12 05:41:38;;;;;;;;;;;;;;;21.50;65.60;100375.94;7310246;19;129399;-37
2022/10/12 05:44:04;;;;;;;;;;;;;;;21.56;65.01;100396.44;7304941;19;129151;-38
2022/10/12 05:46:29;;;;;;;;;;;;;;;21.56;65.26;100391.19;7291081;19;130621;-37
2022/10/12 05:48:54;;;;;;;;;;;;;;;21.46;65.42;100377.16;7307750;19;129267;-37
2022/10/12 05:51:20;;;;;;;;;;;;;;;21.56;65.47;100390.34;7309392;19;129835;-37
2022/10/12 05:53:45;;;;;;;;;;;;;;;21.46;65.32;100379.78;7310306;19;130074;-37
2022/10/12 05:56:10;;;;;;;;;;;;;;;21.59;65.19;100401.41;7309494;19;130113;-37
2022/10/12 05:58:35;;;;;;;;;;;;;;;21.59;64.87;100390.94;7310319;19;130435;-37
2022/10/12 06:01:05;;;;;;;;;;;;;;;21.55;64.99;100399.97;7311718;19;128960;-38
2022/10/12 06:03:30;;;;;;;;;;;;;;;21.61;65.07;100398.66;7314775;19;129712;-37
2022/10/12 06:05:55;;;;;;;;;;;;;;;21.58;64.99;100394.53;7313486;19;130003;-37
2022/10/12 06:08:20;;;;;;;;;;;;;;;21.59;64.87;100401.41;7316577;19;130920;-38
2022/10/12 06:10:48;;;;;;;;;;;;;;;21.56;65.36;100396.44;7316885;19;128801;-38
2022/10/12 06:13:16;;;;;;;;;;;;;;;21.57;65.25;100405.09;7315445;19;129076;-37
2022/10/12 06:15:43;;;;;;;;;;;;;;;21.56;65.23;100398.19;7314089;19;131229;-37
2022/10/12 06:18:08;;;;;;;;;;;;;;;21.55;64.88;100415.66;7315833;19;129660;-38
2022/10/12 06:20:33;;;;;;;;;;;;;;;21.56;65.49;100414.75;7313001;19;129886;-38
2022/10/12 06:22:59;;;;;;;;;;;;;;;21.56;64.85;100412.13;7315800;19;130054;-37
2022/10/12 06:25:24;;;;;;;;;;;;;;;21.59;65.24;100413.66;7314221;19;129444;-37
2022/10/12 06:27:49;;;;;;;;;;;;;;;21.59;65.09;100418.88;7315121;19;129877;-38
2022/10/12 06:30:14;;;;;;;;;;;;;;;21.57;64.96;100413.78;7313640;19;131114;-37
2022/10/12 06:32:40;;;;;;;;;;;;;;;21.58;65.08;100410.22;7315323;19;130022;-37
2022/10/12 06:35:05;;;;;;;;;;;;;;;21.57;65.16;100419.00;7314617;19;130611;-38
2022/10/12 06:37:30;;;;;;;;;;;;;;;21.59;65.53;100426.75;7314737;19;129598;-38
2022/10/12 06:39:56;;;;;;;;;;;;;;;21.57;65.30;100424.25;7315286;19;129751;-38
2022/10/12 06:42:21;;;;;;;;;;;;;;;21.58;64.91;100433.78;7312796;19;129691;-41
2022/10/12 06:44:47;;;;;;;;;;;;;;;21.58;65.34;100430.31;7312741;19;130863;-38
2022/10/12 06:47:12;;;;;;;;;;;;;;;21.54;65.67;100429.72;7317304;19;129825;-37
2022/10/12 06:49:37;;;;;;;;;;;;;;;21.57;65.48;100429.47;7313441;19;129459;-38
2022/10/12 06:52:02;;;;;;;;;;;;;;;21.59;65.49;100434.59;7314841;19;129539;-36
2022/10/12 06:54:28;;;;;;;;;;;;;;;21.46;64.78;100424.25;7317733;19;130465;-37
2022/10/12 06:56:53;;;;;;;;;;;;;;;21.54;65.09;100428.88;7314414;19;130480;-35
2022/10/12 06:59:19;;;;;;;;;;;;;;;21.56;65.19;100429.59;7314480;19;129213;-36
2022/10/12 07:01:44;;;;;;;;;;;;;;;21.51;65.51;100429.97;7312588;19;129339;-38
2022/10/12 07:04:09;;;;;;;;;;;;;;;21.52;65.08;100426.38;7312164;19;130123;-38
2022/10/12 07:06:35;;;;;;;;;;;;;;;21.49;65.12;100431.84;7312126;19;132757;-37
2022/10/12 07:09:00;;;;;;;;;;;;;;;21.52;65.45;100436.84;7314471;19;130382;-37
2022/10/12 07:11:26;;;;;;;;;;;;;;;21.51;65.04;100435.19;7315393;19;130393;-37
2022/10/12 07:13:51;;;;;;;;;;;;;;;21.48;64.97;100419.75;7315803;19;130231;-37
2022/10/12 07:16:16;;;;;;;;;;;;;;;21.50;65.31;100433.50;7313056;19;130479;-38
2022/10/12 07:18:42;;;;;;;;;;;;;;;21.50;65.21;100428.28;7314620;19;129262;-37
2022/10/12 07:21:07;;;;;;;;;;;;;;;21.52;65.26;100425.53;7309922;19;131055;-37
2022/10/12 07:23:33;;;;;;;;;;;;;;;21.49;64.95;100426.63;7314454;19;131113;-37
2022/10/12 07:25:58;;;;;;;;;;;;;;;21.39;65.07;100414.38;7308132;19;129390;-37
2022/10/12 07:28:24;;;;;;;;;;;;;;;21.50;64.41;100435.31;7315039;19;129626;-38
2022/10/12 07:30:49;;;;;;;;;;;;;;;21.51;64.56;100436.97;7315048;19;129181;-38
2022/10/12 07:33:15;;;;;;;;;;;;;;;21.41;65.03;100413.31;7314619;19;130200;-38
2022/10/12 07:35:40;;;;;;;;;;;;;;;21.50;64.34;100422.22;7312085;19;129537;-38
2022/10/12 07:38:05;;;;;;;;;;;;;;;21.54;65.06;100424.47;7313531;19;130176;-38
2022/10/12 07:40:31;;;;;;;;;;;;;;;21.53;64.56;100420.22;7312741;19;129959;-38
2022/10/12 07:42:57;;;;;;;;;;;;;;;21.51;63.81;100424.72;7315512;19;129603;-37
2022/10/12 07:45:22;;;;;;;;;;;;;;;21.52;64.77;100415.06;7311629;19;131077;-37
2022/10/12 07:47:47;;;;;;;;;;;;;;;21.54;64.36;100419.25;7313456;19;129794;-38
2022/10/12 07:50:13;;;;;;;;;;;;;;;21.53;64.62;100416.75;7312837;19;130223;-38
2022/10/12 07:52:39;;;;;;;;;;;;;;;21.52;64.45;100423.75;7313310;19;130813;-36
2022/10/12 07:55:04;;;;;;;;;;;;;;;21.53;64.53;100422.84;7313403;19;129229;-37
2022/10/12 07:57:29;;;;;;;;;;;;;;;21.51;64.76;100419.50;7313178;19;129383;-38
2022/10/12 07:59:54;;;;;;;;;;;;;;;21.50;64.49;100417.81;7314120;19;131184;-38
2022/10/12 08:02:20;;;;;;;;;;;;;;;21.54;64.20;100421.88;7313324;19;131261;-38
2022/10/12 08:04:45;;;;;;;;;;;;;;;21.51;64.09;100422.13;7309545;19;129555;-37
2022/10/12 08:07:11;;;;;;;;;;;;;;;21.52;63.71;100417.69;7314566;19;130927;-38
2022/10/12 08:09:36;;;;;;;;;;;;;;;21.52;63.85;100426.38;7312639;19;129172;-36
2022/10/12 08:12:02;;;;;;;;;;;;;;;21.52;64.41;100426.38;7313040;19;129373;-38
2022/10/12 08:14:27;;;;;;;;;;;;;;;21.53;64.14;100422.84;7314661;19;129262;-35
2022/10/12 08:16:52;;;;;;;;;;;;;;;21.51;64.51;100418.66;7311000;19;130764;-38
2022/10/12 08:19:18;;;;;;;;;;;;;;;21.51;63.90;100409.03;7310594;19;130428;-38
2022/10/12 08:21:43;;;;;;;;;;;;;;;21.50;64.01;100404.72;7311771;19;129301;-38
2022/10/12 08:24:10;;;;;;;;;;;;;;;21.52;64.49;100409.84;7311706;19;130366;-37
2022/10/12 08:26:35;;;;;;;;;;;;;;;21.52;64.32;100405.44;7310157;19;130453;-37
2022/10/12 08:29:01;;;;;;;;;;;;;;;21.50;64.21;100407.34;7313825;19;130108;-38
2022/10/12 08:31:26;;;;;;;;;;;;;;;21.51;64.42;100409.03;7310030;19;129056;-37
2022/10/12 08:33:52;;;;;;;;;;;;;;;21.53;63.84;100409.75;7310480;19;131602;-37
2022/10/12 08:36:17;;;;;;;;;;;;;;;21.53;64.37;100408.91;7311274;19;129149;-37
2022/10/12 08:38:42;;;;;;;;;;;;;;;21.51;64.17;100411.66;7311684;19;129523;-40
2022/10/12 08:41:20;;;;;;;;;;;;;;;21.50;63.99;100417.81;7310802;19;131048;-37
2022/10/12 08:43:59;;;;;;;;;;;;;;;21.51;63.89;100409.03;7313961;19;129729;-37
2022/10/12 08:46:25;;;;;;;;;;;;;;;21.51;63.48;100409.03;7308074;19;129752;-37
2022/10/12 08:48:54;;;;;;;;;;;;;;;21.51;64.26;100395.94;7313265;19;129007;-37
2022/10/12 08:51:22;;;;;;;;;;;;;;;21.53;64.23;100401.06;7311715;19;130293;-37
2022/10/12 08:54:05;;;;;;;;;;;;;;;21.55;64.01;100394.75;7313094;19;132487;-37
2022/10/12 08:56:33;;;;;;;;;;;;;;;21.53;64.29;100394.06;7311467;19;128937;-37
2022/10/12 08:59:00;;;;;;;;;;;;;;;21.53;64.27;100391.44;7312661;19;129547;-37
2022/10/12 09:01:36;;;;;;;;;;;;;;;21.54;64.31;100392.25;7312469;19;129336;-37
2022/10/12 09:04:04;;;;;;;;;;;;;;;21.55;64.27;100388.69;7312745;19;130282;-38
2022/10/12 09:06:33;;;;;;;;;;;;;;;21.54;63.73;100390.47;7304908;19;128989;-37
2022/10/12 09:09:17;;;;;;;;;;;;;;;21.54;63.56;100389.63;7312446;19;128896;-37
2022/10/12 09:11:45;;;;;;;;;;;;;;;21.49;63.95;100379.53;7309769;19;129693;-38
2022/10/12 09:14:21;;;;;;;;;;;;;;;21.52;64.26;100384.53;7310027;19;147580;-37
2022/10/12 09:16:47;;;;;;;;;;;;;;;21.53;64.11;100391.44;7309133;19;130785;-37
2022/10/12 09:19:13;;;;;;;;;;;;;;;21.53;63.52;100385.38;7308724;19;129221;-37
2022/10/12 09:21:39;;;;;;;;;;;;;;;21.52;64.00;100392.38;7310411;19;130460;-37
2022/10/12 09:24:11;;;;;;;;;;;;;;;21.54;63.69;100393.09;7307584;19;131312;-38
2022/10/12 09:26:38;;;;;;;;;;;;;;;21.53;63.76;100394.06;7300897;19;130555;-38
2022/10/12 09:29:23;;;;;;;;;;;;;;;21.53;64.12;100391.44;7310747;19;128986;-37
2022/10/12 09:32:06;;;;;;;;;;;;;;;21.51;63.46;100385.47;7306451;19;130290;-37
2022/10/12 09:34:31;;;;;;;;;;;;;;;21.55;64.76;100386.88;7309818;19;129302;-37
2022/10/12 09:36:57;;;;;;;;;;;;;;;21.51;63.97;100385.47;7299386;19;129307;-37
2022/10/12 09:39:40;;;;;;;;;;;;;;;21.54;63.93;100385.25;7308531;19;130453;-37
2022/10/12 09:42:05;;;;;;;;;;;;;;;21.54;64.09;100376.53;7309848;19;131723;-37
2022/10/12 09:44:34;;;;;;;;;;;;;;;21.55;63.63;100379.03;7311358;19;129303;-38
2022/10/12 09:47:04;;;;;;;;;;;;;;;21.45;64.27;100351.94;7309793;19;129147;-37
2022/10/12 09:49:43;;;;;;;;;;;;;;;21.56;64.20;100380.72;7311347;19;129762;-38
2022/10/12 09:52:09;;;;;;;;;;;;;;;21.55;64.17;100373.81;7301721;19;131110;-37
2022/10/12 09:54:38;;;;;;;;;;;;;;;21.55;63.38;100371.19;7305839;19;129684;-37
2022/10/12 09:57:03;;;;;;;;;;;;;;;21.59;63.72;100370.00;7301977;19;129507;-37
2022/10/12 09:59:33;;;;;;;;;;;;;;;21.57;64.26;100371.91;7305792;19;129487;-38
2022/10/12 10:02:17;;;;;;;;;;;;;;;21.56;64.13;100370.25;7308830;19;129200;-37
2022/10/12 10:04:44;;;;;;;;;;;;;;;21.58;64.47;100373.59;7311112;19;130618;-38
2022/10/12 10:07:28;;;;;;;;;;;;;;;21.56;64.48;100375.50;7311593;19;129214;-36
2022/10/12 10:10:26;;;;;;;;;;;;;;;21.47;63.89;100349.22;7310610;19;129477;-37
2022/10/12 10:12:51;;;;;;;;;;;;;;;21.59;64.08;100367.41;7305508;19;130565;-37
2022/10/12 10:15:18;;;;;;;;;;;;;;;21.60;64.03;100360.38;7309019;19;131448;-38
2022/10/12 10:17:47;;;;;;;;;;;;;;;21.57;63.95;100361.44;7312899;19;129606;-37
2022/10/12 10:20:21;;;;;;;;;;;;;;;21.43;65.51;100347.78;7304643;19;129488;-38
2022/10/12 10:22:47;;;;;;;;;;;;;;;21.55;64.45;100363.34;7310089;19;129132;-37
2022/10/12 10:25:18;;;;;;;;;;;;;;;21.57;63.63;100355.38;7301777;19;130840;-37
2022/10/12 10:27:44;;;;;;;;;;;;;;;21.57;64.14;100355.38;7311090;19;130673;-38
2022/10/12 10:30:20;;;;;;;;;;;;;;;21.55;64.22;100349.44;7311818;19;129401;-38
2022/10/12 10:32:46;;;;;;;;;;;;;;;21.55;64.19;100357.31;7308627;19;130336;-38
2022/10/12 10:35:11;;;;;;;;;;;;;;;21.59;64.30;100354.31;7309185;19;129181;-37
2022/10/12 10:37:45;;;;;;;;;;;;;;;21.56;64.48;100354.56;7309241;19;128914;-38
2022/10/12 10:40:19;;;;;;;;;;;;;;;21.54;64.63;100356.47;7310911;19;129874;-38
2022/10/12 10:42:48;;;;;;;;;;;;;;;21.53;63.89;100354.81;7309949;19;129672;-38
2022/10/12 10:45:21;;;;;;;;;;;;;;;21.48;64.15;100330.78;7307729;19;129250;-38
2022/10/12 10:47:46;;;;;;;;;;;;;;;21.60;64.61;100337.66;7313445;19;129001;-36
2022/10/12 10:50:26;;;;;;;;;;;;;;;21.47;64.39;100329.09;7316620;19;129118;-38
2022/10/12 10:52:54;;;;;;;;;;;;;;;21.55;64.01;100342.41;7317794;19;129588;-38
2022/10/12 10:55:20;;;;;;;;;;;;;;;21.57;64.71;100340.50;7316287;19;129377;-36
2022/10/12 10:57:48;;;;;;;;;;;;;;;21.59;64.20;100338.63;7316148;19;129653;-36
2022/10/12 11:00:15;;;;;;;;;;;;;;;21.56;64.50;100338.84;7316439;19;129177;-38
2022/10/12 11:02:47;;;;;;;;;;;;;;;21.53;64.15;100339.09;7313716;19;129447;-37
2022/10/12 11:05:17;;;;;;;;;;;;;;;21.56;64.14;100333.63;7314596;19;129679;-38
2022/10/12 11:07:47;;;;;;;;;;;;;;;21.49;64.25;100321.97;7315172;19;129724;-38
2022/10/12 11:10:31;;;;;;;;;;;;;;;21.57;63.83;100331.81;7314953;19;129505;-36
2022/10/12 11:13:11;;;;;;;;;;;;;;;21.55;64.52;100326.72;7315236;19;129134;-38
2022/10/12 11:15:36;;;;;;;;;;;;;;;21.53;63.95;100333.03;7314643;19;129621;-38
2022/10/12 11:18:33;;;;;;;;;;;;;;;21.55;64.65;100326.72;7312584;19;129198;-38
2022/10/12 11:21:06;;;;;;;;;;;;;;;21.54;64.50;100322.44;7312600;19;129854;-36
2022/10/12 11:23:46;;;;;;;;;;;;;;;21.55;64.26;100321.47;7313288;19;130252;-38
2022/10/12 11:26:30;;;;;;;;;;;;;;;21.42;64.16;100294.63;7313355;19;129857;-37
2022/10/12 11:28:57;;;;;;;;;;;;;;;21.54;64.21;100311.97;7315503;19;129617;-38
2022/10/12 11:31:46;;;;;;;;;;;;;;;21.50;64.96;100317.59;7316039;19;129268;-39
2022/10/12 11:34:15;;;;;;;;;;;;;;;21.51;63.80;100307.00;7312126;19;130718;-39
2022/10/12 11:36:42;;;;;;;;;;;;;;;21.52;64.20;100300.78;7312386;19;130737;-39
2022/10/12 11:39:15;;;;;;;;;;;;;;;21.49;63.57;100301.03;7315753;19;130520;-39
2022/10/12 11:41:45;;;;;;;;;;;;;;;21.47;63.59;100302.94;7315804;19;129492;-39
2022/10/12 11:44:38;;;;;;;;;;;;;;;21.44;63.20;100299.75;7314992;19;130364;-39
2022/10/12 11:47:28;;;;;;;;;;;;;;;21.43;63.14;100298.94;7311354;19;130787;-39
2022/10/12 11:50:03;;;;;;;;;;;;;;;21.44;62.89;100290.13;7316576;19;129040;-39
2022/10/12 11:52:35;;;;;;;;;;;;;;;21.45;63.08;100290.97;7310514;19;130142;-39
2022/10/12 11:55:06;;;;;;;;;;;;;;;21.44;62.52;100284.88;7314578;19;130733;-39
2022/10/12 11:57:33;;;;;;;;;;;;;;;21.43;62.97;100291.09;7311928;19;129388;-39
2022/10/12 12:00:02;;;;;;;;;;;;;;;21.42;62.99;100292.00;7312828;19;130141;-39
2022/10/12 12:02:36;;;;;;;;;;;;;;;21.42;62.36;100284.16;7313216;19;129051;-39
2022/10/12 12:05:02;;;;;;;;;;;;;;;21.34;62.42;100270.88;7313324;19;129830;-39
2022/10/12 12:07:39;;;;;;;;;;;;;;;21.41;62.52;100277.28;7314415;19;129338;-39
2022/10/12 12:10:23;;;;;;;;;;;;;;;21.41;62.72;100277.28;7313793;19;130415;-39
2022/10/12 12:13:10;;;;;;;;;;;;;;;21.33;61.90;100261.38;7314583;19;129137;-39
2022/10/12 12:15:35;;;;;;;;;;;;;;;21.40;61.54;100269.56;7312008;19;130319;-39
2022/10/12 12:18:36;;;;;;;;;;;;;;;21.40;61.72;100254.69;7312188;19;130144;-39
2022/10/12 12:21:05;;;;;;;;;;;;;;;21.39;62.39;100253.03;7311098;19;129723;-39
2022/10/12 12:23:42;;;;;;;;;;;;;;;21.40;61.77;100253.88;7304211;19;129922;-39
2022/10/12 12:26:10;;;;;;;;;;;;;;;21.40;61.56;100252.06;7310266;19;132086;-39
2022/10/12 12:28:43;;;;;;;;;;;;;;;21.40;61.61;100254.69;7313550;19;131554;-39
2022/10/12 12:31:11;;;;;;;;;;;;;;;21.40;62.72;100249.44;7312839;19;129068;-39
2022/10/12 12:33:40;;;;;;;;;;;;;;;21.40;62.67;100244.22;7307284;19;131252;-39
2022/10/12 12:36:10;;;;;;;;;;;;;;;21.42;62.12;100247.53;7312399;19;130890;-39